Latest Weather Observations for Carnarvon

IDW60801

Issued at 10:03 am WST Tuesday 31 March 2015 (issued every 30 minutes, with the page automatically refreshed every 10 minutes)

About weather observations | Map of weather stations | Latest weather observations for WA | Other Formats
Station Details ID: 006011 Name: CARNARVON AIRPORT Lat: -24.89 Lon: 113.67 Height: 4.0 m
Data from the previous 72 hours. | See also: Recent months at Carnarvon
Date/Time
WST
Temp
°C
App
Temp
°C
Dew
Point
Rel
Hum
%
Delta-T
°C
Wind Press
QNH
hPa
Press
MSL
hPa
Rain
since 9 am
mm
Dir
 
Spd
km/h
Gust
km/h
Spd
kts
Gust
kts
31/10:00am 24.4 25.3 20.9 81 2.3 SE 17 22 9 12 1016.5 - 0.0
31/09:35am 24.3 25.7 21.1 82 2.1 SE 15 20 8 11 1016.8 - 0.0
31/09:30am 24.4 25.8 21.0 81 2.2 SE 15 20 8 11 1016.8 - 0.0
31/09:00am 23.4 24.8 21.1 87 1.5 ESE 15 19 8 10 1016.6 1016.6 3.4
31/08:36am 22.8 24.3 21.3 91 1.0 ESE 15 19 8 10 1016.5 - 3.4
31/08:30am 22.6 24.1 21.2 92 0.9 ESE 15 19 8 10 1016.4 - 3.4
31/08:16am 22.0 23.5 21.2 95 0.5 ESE 15 19 8 10 1016.2 - 3.4
31/08:00am 21.3 22.9 20.8 97 0.3 ESE 13 17 7 9 1016.2 - 3.4
31/07:46am 21.0 22.5 20.5 97 0.3 ESE 13 19 7 10 1016.2 - 3.4
31/07:42am 21.1 22.7 20.8 98 0.2 ESE 13 17 7 9 1016.1 - 3.4
31/07:30am 21.0 22.5 20.5 97 0.3 ESE 13 17 7 9 1016.0 - 3.4
31/07:00am 20.5 22.6 20.2 98 0.2 E 9 13 5 7 1015.6 - 3.4
31/06:30am 19.9 21.7 19.6 98 0.2 ESE 9 9 5 5 1015.6 - 3.4
31/06:00am 20.2 21.7 19.7 97 0.3 SE 11 13 6 7 1015.2 1015.2 3.4
31/05:30am 20.0 21.5 19.7 98 0.2 SE 11 13 6 7 1014.9 - 3.4
31/05:00am 19.9 21.7 19.6 98 0.2 SE 9 11 5 6 1014.5 - 3.4
31/04:30am 20.1 21.6 19.8 98 0.2 SE 11 13 6 7 1014.4 - 3.4
31/04:00am 19.9 21.7 19.6 98 0.2 SSE 9 9 5 5 1014.3 - 3.4
31/03:30am 20.1 22.3 19.6 97 0.3 SSE 7 9 4 5 1014.2 - 3.4
31/03:00am 20.4 22.7 19.9 97 0.3 SSE 7 9 4 5 1014.3 1014.3 3.4
31/02:30am 20.7 22.8 20.2 97 0.3 S 9 11 5 6 1014.5 - 3.4
31/02:00am 20.8 22.6 20.3 97 0.3 S 11 13 6 7 1014.5 - 3.4
31/01:30am 20.9 22.7 20.3 96 0.4 S 11 13 6 7 1014.7 - 3.4
31/01:00am 20.9 22.7 20.4 97 0.3 S 11 13 6 7 1014.5 - 3.4
31/12:30am 20.9 22.7 20.3 96 0.4 S 11 13 6 7 1014.6 - 3.4
31/12:00am 20.4 22.7 19.9 97 0.3 SSE 7 9 4 5 1014.7 1014.7 3.4
 
Date/Time
WST
Temp
°C
App
Temp
°C
Dew
Point
Rel
Hum
%
Delta-T
°C
Wind Press
QNH
hPa
Press
MSL
hPa
Rain
since 9 am
mm
Dir
 
Spd
km/h
Gust
km/h
Spd
kts
Gust
kts
30/11:30pm 20.6 22.3 20.1 97 0.3 SE 11 11 6 6 1014.9 - 3.4
30/11:00pm 20.7 22.8 20.2 97 0.3 ESE 9 11 5 6 1015.2 - 3.4
30/10:30pm 21.0 23.6 20.4 96 0.4 SE 7 9 4 5 1015.5 - 3.4
30/10:00pm 21.4 24.1 20.6 95 0.5 ESE 7 7 4 4 1015.6 - 3.4
30/09:30pm 21.6 24.4 20.8 95 0.5 E 7 9 4 5 1015.6 - 3.4
30/09:00pm 21.8 24.1 20.7 93 0.7 E 9 11 5 6 1015.6 1015.6 3.4
30/08:30pm 21.9 23.6 21.0 95 0.6 E 13 15 7 8 1015.6 - 3.4
30/08:00pm 21.9 24.0 21.0 95 0.6 E 11 17 6 9 1016.0 - 3.4
30/07:30pm 21.9 22.5 21.0 95 0.6 E 19 24 10 13 1015.7 - 3.2
30/07:00pm 22.0 23.8 21.1 95 0.6 E 13 19 7 10 1015.6 - 3.2
30/06:30pm 22.2 22.7 20.8 92 0.9 E 19 24 10 13 1015.5 - 3.0
30/06:00pm 22.5 23.7 21.4 93 0.7 E 17 22 9 12 1015.3 1015.3 3.0
30/05:30pm 22.6 23.8 21.4 93 0.8 E 17 22 9 12 1015.1 - 2.8
30/05:24pm 22.7 23.9 21.5 93 0.8 E 17 22 9 12 1015.1 - 2.8
30/05:00pm 22.7 24.0 21.6 93 0.7 E 17 22 9 12 1014.8 - 2.8
30/04:30pm 22.6 23.3 21.5 93 0.7 E 20 26 11 14 1014.5 - 2.8
30/04:27pm 22.7 23.4 21.6 93 0.7 E 20 26 11 14 1014.5 - 2.8
30/04:00pm 22.4 23.3 21.5 95 0.6 E 19 24 10 13 1014.4 - 2.8
30/03:30pm 22.1 22.5 21.0 93 0.7 ESE 20 26 11 14 1014.5 - 2.8
30/03:00pm 21.9 23.2 20.8 93 0.7 ESE 15 20 8 11 1015.5 1015.5 2.8
30/02:30pm 21.7 23.0 20.8 95 0.6 ESE 15 19 8 10 1015.9 - 2.6
30/02:00pm 21.4 22.0 20.2 93 0.8 ESE 17 22 9 12 1016.3 - 2.2
30/01:30pm 21.7 21.9 20.1 91 1.0 ESE 19 24 10 13 1016.3 - 2.2
30/01:00pm 21.9 22.9 20.2 90 1.1 SE 15 19 8 10 1016.6 - 1.4
30/12:30pm 22.2 22.8 20.2 88 1.3 SE 17 20 9 11 1016.8 - 0.8
30/12:00pm 22.4 22.2 19.7 85 1.7 SSE 20 28 11 15 1016.6 1016.6 0.6
30/11:30am 22.9 23.4 20.1 84 1.8 SSE 17 22 9 12 1017.0 - 0.4
30/11:00am 23.9 23.1 19.2 75 3.0 SSE 22 30 12 16 1016.6 - 0.0
30/10:30am 23.8 21.5 18.4 72 3.4 SSE 28 32 15 17 1016.7 - 0.0
30/10:00am 23.5 21.3 18.6 74 3.1 SSE 28 33 15 18 1016.6 - 0.0
30/09:30am 23.0 21.0 19.2 79 2.4 SSE 28 37 15 20 1016.1 - 0.0
30/09:00am 22.4 22.0 20.2 87 1.4 SSE 22 32 12 17 1016.1 1016.1 3.0
30/08:30am 21.6 20.9 18.7 83 1.8 SSE 20 26 11 14 1016.4 - 3.0
30/08:00am 21.5 20.5 18.8 84 1.7 SSE 22 28 12 15 1016.2 - 3.0
30/07:30am 21.3 20.2 18.6 84 1.7 SSE 22 28 12 15 1016.3 - 3.0
30/07:00am 21.3 19.5 18.7 85 1.6 S 26 33 14 18 1016.2 - 3.0
30/06:30am 22.5 21.8 19.5 83 1.9 S 22 30 12 16 1016.1 - 2.6
30/06:00am 22.1 19.9 18.8 81 2.1 S 28 35 15 19 1015.5 1015.5 2.6
30/05:30am 22.2 20.8 19.7 86 1.6 SSW 26 33 14 18 1015.5 - 2.6
30/05:00am 21.6 20.2 18.7 83 1.8 SW 24 32 13 17 1015.5 - 2.6
30/04:30am 22.0 20.9 19.5 86 1.6 WSW 24 32 13 17 1015.3 - 2.4
30/04:00am 21.8 21.0 18.4 81 2.1 WSW 20 28 11 15 1015.6 - 2.2
30/03:30am 21.7 22.6 19.3 86 1.5 WSW 13 19 7 10 1015.5 - 1.2
30/03:00am 22.0 22.6 18.7 81 2.1 SSE 13 17 7 9 1014.5 1014.5 1.0
30/02:30am 22.0 21.3 18.7 81 2.1 ESE 20 24 11 13 1014.1 - 0.8
30/02:00am 24.1 23.6 18.6 71 3.5 N 19 26 10 14 1014.8 - 0.0
30/01:46am 25.3 23.1 18.7 67 4.2 NE 28 37 15 20 1014.1 - 0.0
30/01:30am 25.7 26.1 18.1 63 4.8 SSE 13 17 7 9 1013.1 - 0.0
30/01:00am 25.7 25.9 18.6 65 4.5 S 15 20 8 11 1013.1 - 0.0
30/12:30am 25.7 25.9 18.6 65 4.5 S 15 17 8 9 1013.5 - 0.0
30/12:00am 25.8 25.9 18.4 63 4.7 S 15 20 8 11 1013.5 1013.5 0.0
 
Date/Time
WST
Temp
°C
App
Temp
°C
Dew
Point
Rel
Hum
%
Delta-T
°C
Wind Press
QNH
hPa
Press
MSL
hPa
Rain
since 9 am
mm
Dir
 
Spd
km/h
Gust
km/h
Spd
kts
Gust
kts
29/11:30pm 26.1 25.7 18.0 61 5.1 S 17 20 9 11 1013.7 - 0.0
29/11:00pm 26.2 26.3 19.2 65 4.5 S 17 22 9 12 1014.0 - 0.0
29/10:30pm 26.2 27.4 20.6 71 3.7 S 15 17 8 9 1014.5 - 0.0
29/10:00pm 26.5 26.8 18.7 62 5.0 S 15 17 8 9 1014.8 - 0.0
29/09:30pm 26.7 27.3 19.4 64 4.7 S 15 19 8 10 1014.6 - 0.0
29/09:00pm 26.9 27.8 20.8 69 4.0 S 17 20 9 11 1014.5 1014.5 0.0
29/08:30pm 26.9 27.5 21.0 70 3.9 S 19 22 10 12 1014.4 - 0.0
29/08:00pm 27.1 28.6 21.2 70 3.9 S 15 20 8 11 1014.3 - 0.0
29/07:30pm 27.1 28.3 19.9 64 4.7 S 13 17 7 9 1014.2 - 0.0
29/07:00pm 27.3 28.0 19.6 62 5.0 S 15 19 8 10 1013.9 - 0.0
29/06:30pm 27.4 28.6 20.6 66 4.5 S 15 19 8 10 1013.6 - 0.0
29/06:00pm 27.9 27.8 19.6 60 5.4 S 19 22 10 12 1013.2 1013.2 0.0
29/05:30pm 29.0 28.8 19.3 55 6.3 S 19 24 10 13 1013.1 - 0.0
29/05:00pm 29.9 29.6 19.1 52 7.0 S 19 24 10 13 1013.0 - 0.0
29/04:30pm 29.2 28.3 18.1 51 7.1 S 20 28 11 15 1012.8 - 0.0
29/04:00pm 29.3 27.4 18.6 52 6.9 S 26 33 14 18 1012.6 - 0.0
29/03:30pm 31.1 29.6 17.8 45 8.5 S 22 30 12 16 1012.7 - 0.0
29/03:00pm 30.4 29.8 18.8 50 7.5 S 20 28 11 15 1012.9 1012.9 0.0
29/02:30pm 29.5 29.5 19.7 55 6.4 S 19 24 10 13 1013.3 - 0.0
29/02:00pm 32.2 28.7 10.2 25 12.6 SE 19 28 10 15 1013.6 - 0.0
29/01:30pm 32.3 28.8 10.9 27 12.4 SE 20 26 11 14 1013.8 - 0.0
29/01:00pm 32.2 28.6 10.5 26 12.5 SE 20 28 11 15 1014.1 - 0.0
29/12:30pm 31.9 28.7 11.8 29 11.8 SE 20 28 11 15 1014.4 - 0.0
29/12:00pm 30.1 27.6 13.5 36 9.9 ESE 19 26 10 14 1014.6 1014.6 0.0
29/11:30am 29.6 27.0 13.9 38 9.4 ESE 20 26 11 14 1014.9 - 0.0
29/11:00am 28.7 26.9 14.4 41 8.6 ESE 17 22 9 12 1015.2 - 0.0
29/10:30am 27.2 25.3 14.1 44 7.8 ESE 17 20 9 11 1015.6 - 0.0
29/10:00am 26.8 24.5 14.2 46 7.5 ESE 19 24 10 13 1015.8 - 0.0
29/09:30am 25.9 24.0 14.1 48 7.0 ESE 17 24 9 13 1015.8 - 0.0
29/09:00am 24.1 21.8 14.1 53 5.9 ESE 19 24 10 13 1015.7 1015.7 0.0
29/08:30am 23.1 21.1 14.0 56 5.3 ESE 17 22 9 12 1015.6 - 0.0
29/08:00am 22.4 20.8 14.0 59 4.9 ESE 15 20 8 11 1015.5 - 0.0
29/07:30am 21.9 20.0 14.2 61 4.5 SE 17 24 9 13 1015.3 - 0.0
29/07:00am 21.3 19.6 14.6 65 3.9 ESE 17 20 9 11 1015.1 - 0.0
29/06:30am 20.7 18.9 14.5 67 3.6 SE 17 22 9 12 1014.8 - 0.0
29/06:00am 20.8 19.3 15.2 70 3.3 SSE 17 20 9 11 1014.5 1014.5 0.0
29/05:30am 20.6 19.6 15.7 73 2.9 SSE 15 19 8 10 1014.3 - 0.0
29/05:00am 20.6 20.2 16.3 76 2.6 SSE 13 17 7 9 1014.4 - 0.0
29/04:30am 20.8 20.6 16.8 78 2.4 SSE 13 15 7 8 1014.2 - 0.0
29/04:00am 21.3 21.5 17.6 79 2.3 SSE 13 17 7 9 1014.2 - 0.0
29/03:30am 21.7 21.8 18.3 81 2.1 SSE 15 19 8 10 1014.2 - 0.0
29/03:00am 21.8 23.2 19.6 87 1.4 SSE 11 15 6 8 1014.3 1014.3 0.0
29/02:30am 22.0 24.0 20.0 88 1.3 SSE 9 13 5 7 1014.5 - 0.0
29/02:00am 22.0 23.5 19.8 87 1.4 S 11 13 6 7 1014.6 - 0.0
29/01:30am 22.2 23.8 19.9 87 1.5 S 11 11 6 6 1014.8 - 0.0
29/01:00am 22.6 24.7 20.1 86 1.6 S 9 11 5 6 1015.0 - 0.0
29/12:30am 23.3 24.8 20.5 84 1.8 S 13 15 7 8 1015.2 - 0.0
29/12:00am 23.6 25.1 20.5 83 2.0 S 13 17 7 9 1015.4 1015.4 0.0
 
Date/Time
WST
Temp
°C
App
Temp
°C
Dew
Point
Rel
Hum
%
Delta-T
°C
Wind Press
QNH
hPa
Press
MSL
hPa
Rain
since 9 am
mm
Dir
 
Spd
km/h
Gust
km/h
Spd
kts
Gust
kts
28/11:30pm 23.4 24.7 20.1 82 2.1 S 13 15 7 8 1015.7 - 0.0
28/11:00pm 23.5 25.1 19.9 80 2.3 S 11 13 6 7 1015.8 - 0.0
28/10:30pm 23.9 25.0 19.7 77 2.7 S 13 17 7 9 1016.0 - 0.0
28/10:00pm 24.4 24.9 19.2 73 3.3 S 15 20 8 11 1016.1 - 0.0
28/09:30pm 24.8 24.5 19.2 71 3.6 S 19 24 10 13 1016.0 - 0.0
28/09:00pm 25.3 25.3 20.2 73 3.3 S 20 24 11 13 1015.7 1015.7 0.0
28/08:30pm 25.9 25.5 21.0 74 3.2 S 24 32 13 17 1015.3 - 0.0
28/08:00pm 26.4 25.6 20.1 68 4.1 S 24 32 13 17 1015.1 - 0.0
28/07:30pm 26.3 26.3 21.0 72 3.5 S 22 28 12 15 1014.8 - 0.0
28/07:00pm 26.3 26.6 20.7 71 3.7 S 20 24 11 13 1014.6 - 0.0
28/06:30pm 26.7 26.8 20.4 68 4.1 S 20 26 11 14 1014.1 - 0.0
28/06:00pm 27.5 26.1 18.8 59 5.6 S 24 32 13 17 1013.7 1013.7 0.0
28/05:30pm 27.9 25.9 19.2 59 5.6 S 28 33 15 18 1013.4 - 0.0
28/05:00pm 28.1 25.2 18.0 54 6.4 S 30 35 16 19 1013.3 - 0.0
28/04:30pm 28.4 25.8 17.8 52 6.7 S 28 37 15 20 1013.6 - 0.0
28/04:00pm 28.2 26.0 18.7 56 6.1 S 28 35 15 19 1013.9 - 0.0
28/03:30pm 28.5 26.8 19.9 59 5.6 S 28 35 15 19 1014.0 - 0.0
28/03:00pm 28.0 26.6 20.4 63 5.0 S 28 35 15 19 1013.9 1013.9 0.0
28/02:30pm 27.5 25.9 20.7 66 4.5 SSW 30 35 16 19 1014.1 - 0.0
28/02:00pm 27.6 26.2 21.1 67 4.3 SSW 30 37 16 20 1014.4 - 0.0
28/01:30pm 27.0 25.6 21.1 70 3.9 SSW 30 37 16 20 1015.1 - 0.0
28/01:00pm 27.8 27.2 21.2 67 4.4 SSW 26 33 14 18 1015.4 - 0.0
28/12:30pm 28.2 27.5 21.1 65 4.7 S 26 35 14 19 1015.9 - 0.0
28/12:00pm 28.1 27.3 20.8 64 4.8 S 26 35 14 19 1016.1 1016.1 0.0
28/11:30am 28.7 28.2 19.1 56 6.2 SSE 20 22 11 12 1017.0 - 0.0
28/11:00am 28.6 27.6 18.8 55 6.3 SSE 22 30 12 16 1017.0 - 0.0
28/10:30am 27.3 26.7 18.9 60 5.4 SE 20 22 11 12 1017.3 - 0.0

Other Formats:

Comma delimited format used in spreadsheet applications
http://www.bom.gov.au/fwo/IDW60801/IDW60801.94300.axf

JavaScript Object Notation format (JSON) in row-major order
http://www.bom.gov.au/fwo/IDW60801/IDW60801.94300.json